| time (UTC) | temp F | wind direction | speed MPH | gust MPH | rain 1hr in | rain 24hr in | rain mn in | humidity % | barometer mb |
| 20260831122016 | 70 | 293 | 9.0 | 17.0 | 0.15 | 0.15 | 0.15 | 83 | 1017.5 |
| 20260831121016 | 69 | 293 | 12.0 | 20.0 | 0.15 | 0.15 | 0.15 | 84 | 1017.6 |
| 20260831120016 | 70 | 293 | 12.0 | 24.0 | 0.15 | 0.15 | 0.15 | 83 | 1017.4 |
| 20260831115016 | 72 | 270 | 10.0 | 17.0 | 0.07 | 0.07 | 0.07 | 78 | 1017.3 |
| 20260831114016 | 76 | 270 | 8.0 | 15.0 | 0.01 | 0.01 | 0.01 | 69 | 1017.0 |
| 20260831113016 | 78 | 270 | 6.0 | 12.0 | 0.00 | 0.00 | 0.00 | 62 | 1016.5 |
| 20260831112016 | 80 | 248 | 13.0 | 26.0 | 0.00 | 0.00 | 0.00 | 56 | 1015.8 |
| 20260831111016 | 82 | 0.0 | 2.0 | 0.00 | 0.00 | 0.00 | 53 | 1015.3 | |
| 20260831110016 | 82 | 0.0 | 1.0 | 0.00 | 0.00 | 0.00 | 53 | 1014.9 | |
| 20260831105016 | 82 | 90 | 2.0 | 5.0 | 0.00 | 0.00 | 0.00 | 53 | 1014.5 |
| 20260831104016 | 82 | 68 | 2.0 | 5.0 | 0.00 | 0.00 | 0.00 | 52 | 1014.3 |
| 20260831103016 | 82 | 68 | 2.0 | 4.0 | 0.00 | 0.00 | 0.00 | 52 | 1014.4 |
| 20260831102016 | 82 | 90 | 2.0 | 4.0 | 0.00 | 0.00 | 0.00 | 52 | 1014.1 |
| 20260831101016 | 81 | 90 | 1.0 | 4.0 | 0.00 | 0.00 | 0.00 | 53 | 1014.3 |
| 20260831100016 | 81 | 0.0 | 1.0 | 0.00 | 0.00 | 0.00 | 53 | 1014.3 | |
| 20260831095016 | 81 | 0.0 | 2.0 | 0.00 | 0.00 | 0.00 | 54 | 1014.2 | |
| 20260831094016 | 81 | 0.0 | 0.0 | 0.00 | 0.00 | 0.00 | 53 | 1014.2 | |
| 20260831093016 | 81 | 0.0 | 1.0 | 0.00 | 0.00 | 0.00 | 53 | 1014.1 | |
| 20260831092016 | 82 | 0.0 | 0.0 | 0.00 | 0.00 | 0.00 | 52 | 1014.0 | |
| 20260831091016 | 82 | 0.0 | 0.0 | 0.00 | 0.00 | 0.00 | 52 | 1014.2 | |
| 20260831090016 | 82 | 0.0 | 0.0 | 0.00 | 0.00 | 0.00 | 52 | 1014.3 | |
| 20260831085016 | 82 | 0.0 | 0.0 | 0.00 | 0.00 | 0.00 | 52 | 1014.2 | |
| 20260831084016 | 82 | 0.0 | 0.0 | 0.00 | 0.00 | 0.00 | 52 | 1014.2 | |
| 20260831083016 | 82 | 0.0 | 1.0 | 0.00 | 0.00 | 0.00 | 52 | 1014.3 | |
| 20260831082016 | 82 | 0.0 | 1.0 | 0.00 | 0.00 | 0.00 | 52 | 1014.4 | |
| 20260831081016 | 83 | 0.0 | 2.0 | 0.00 | 0.00 | 0.00 | 51 | 1014.4 | |
| 20260831080016 | 83 | 45 | 1.0 | 2.0 | 0.00 | 0.00 | 0.00 | 51 | 1014.5 |
| 20260831075016 | 83 | 0.0 | 0.0 | 0.00 | 0.00 | 0.00 | 50 | 1014.4 | |
| 20260831074016 | 84 | 0.0 | 0.0 | 0.00 | 0.00 | 0.00 | 49 | 1014.5 | |
| 20260831073016 | 84 | 0.0 | 0.0 | 0.00 | 0.00 | 0.00 | 49 | 1014.5 | |
| 20260831072016 | 84 | 0.0 | 1.0 | 0.00 | 0.00 | 0.00 | 48 | 1014.5 | |
| 20260831071016 | 84 | 0.0 | 1.0 | 0.00 | 0.00 | 0.00 | 48 | 1014.6 | |
| 20260831070016 | 84 | 0.0 | 2.0 | 0.00 | 0.00 | 0.00 | 48 | 1014.6 | |
| 20260831065016 | 85 | 0.0 | 1.0 | 0.00 | 0.00 | 0.00 | 48 | 1014.8 | |
| 20260831064016 | 85 | 0.0 | 0.0 | 0.00 | 0.00 | 0.00 | 47 | 1014.7 | |
| 20260831063016 | 85 | 0.0 | 2.0 | 0.00 | 0.00 | 0.00 | 47 | 1014.7 | |
| 20260831062016 | 85 | 225 | 1.0 | 4.0 | 0.00 | 0.00 | 0.00 | 46 | 1014.7 |
| 20260831061016 | 86 | 0.0 | 6.0 | 0.00 | 0.00 | 0.00 | 46 | 1014.7 | |
| 20260831060016 | 86 | 248 | 2.0 | 7.0 | 0.00 | 0.00 | 0.00 | 46 | 1014.7 |
| 20260831055016 | 87 | 270 | 5.0 | 10.0 | 0.00 | 0.00 | 0.00 | 46 | 1014.7 |
| 20260831054016 | 87 | 293 | 4.0 | 13.0 | 0.00 | 0.00 | 0.00 | 46 | 1014.7 |
| 20260831053016 | 87 | 293 | 3.0 | 16.0 | 0.00 | 0.00 | 0.00 | 45 | 1014.5 |
| 20260831052016 | 87 | 293 | 2.0 | 8.0 | 0.00 | 0.00 | 0.00 | 44 | 1014.3 |
| 20260831051016 | 87 | 270 | 4.0 | 8.0 | 0.00 | 0.00 | 0.00 | 44 | 1014.2 |
| 20260831050016 | 87 | 315 | 4.0 | 9.0 | 0.00 | 0.00 | 0.00 | 44 | 1014.3 |
| 20260831045016 | 87 | 270 | 6.0 | 11.0 | 0.00 | 0.00 | 0.00 | 44 | 1014.4 |
| 20260831044016 | 87 | 270 | 3.0 | 11.0 | 0.00 | 0.00 | 0.00 | 44 | 1014.4 |
| 20260831043016 | 87 | 293 | 6.0 | 11.0 | 0.00 | 0.00 | 0.00 | 43 | 1014.5 |
| 20260831042016 | 87 | 293 | 8.0 | 12.0 | 0.00 | 0.00 | 0.00 | 43 | 1014.4 |
| 20260831041016 | 87 | 293 | 7.0 | 11.0 | 0.00 | 0.00 | 0.00 | 42 | 1014.3 |
| 20260831040016 | 87 | 293 | 6.0 | 13.0 | 0.00 | 0.00 | 0.00 | 42 | 1014.3 |
| 20260831035016 | 88 | 270 | 5.0 | 11.0 | 0.00 | 0.00 | 0.00 | 41 | 1014.1 |
| 20260831034016 | 88 | 293 | 6.0 | 14.0 | 0.00 | 0.00 | 0.00 | 41 | 1014.0 |
| 20260831033016 | 88 | 270 | 8.0 | 13.0 | 0.00 | 0.00 | 0.00 | 40 | 1013.9 |
| 20260831032016 | 88 | 293 | 10.0 | 18.0 | 0.00 | 0.00 | 0.00 | 40 | 1013.7 |
| 20260831031016 | 89 | 270 | 10.0 | 16.0 | 0.00 | 0.00 | 0.00 | 40 | 1013.5 |
| 20260831030016 | 89 | 293 | 11.0 | 20.0 | 0.00 | 0.00 | 0.00 | 39 | 1013.2 |
| 20260831025016 | 90 | 270 | 11.0 | 16.0 | 0.00 | 0.00 | 0.00 | 40 | 1013.1 |
| 20260831024016 | 92 | 270 | 10.0 | 18.0 | 0.00 | 0.00 | 0.00 | 38 | 1012.7 |
| 20260831023016 | 92 | 270 | 6.0 | 11.0 | 0.00 | 0.00 | 0.00 | 36 | 1012.3 |
| 20260831022016 | 93 | 293 | 4.0 | 9.0 | 0.00 | 0.00 | 0.00 | 36 | 1012.1 |
| 20260831021016 | 93 | 293 | 5.0 | 10.0 | 0.00 | 0.00 | 0.00 | 35 | 1012.0 |
| 20260831020016 | 93 | 293 | 4.0 | 8.0 | 0.00 | 0.00 | 0.00 | 35 | 1012.0 |
| 20260831015016 | 93 | 293 | 5.0 | 10.0 | 0.00 | 0.00 | 0.00 | 34 | 1011.9 |
| 20260831014016 | 93 | 270 | 7.0 | 12.0 | 0.00 | 0.00 | 0.00 | 33 | 1011.8 |
| 20260831013016 | 94 | 270 | 6.0 | 10.0 | 0.00 | 0.00 | 0.00 | 33 | 1011.6 |
| 20260831012016 | 94 | 270 | 5.0 | 13.0 | 0.00 | 0.00 | 0.00 | 32 | 1011.6 |
| 20260831011016 | 94 | 270 | 5.0 | 11.0 | 0.00 | 0.00 | 0.00 | 32 | 1011.6 |
| 20260831010016 | 95 | 270 | 6.0 | 11.0 | 0.00 | 0.00 | 0.00 | 32 | 1011.5 |
| 20260831005016 | 96 | 270 | 5.0 | 9.0 | 0.00 | 0.00 | 0.00 | 31 | 1011.5 |
| 20260831004016 | 96 | 270 | 4.0 | 9.0 | 0.00 | 0.00 | 0.00 | 31 | 1011.6 |
| 20260831003016 | 97 | 270 | 6.0 | 11.0 | 0.00 | 0.00 | 0.00 | 31 | 1011.6 |
| 20260831002016 | 97 | 270 | 6.0 | 14.0 | 0.00 | 0.00 | 0.00 | 31 | 1011.6 |
| 20260831001016 | 97 | 270 | 3.0 | 8.0 | 0.00 | 0.00 | 0.00 | 31 | 1011.6 |
| 20260831000016 | 97 | 270 | 3.0 | 12.0 | 0.00 | 0.00 | 0.00 | 30 | 1011.6 |
| 20260830235016 | 97 | 270 | 7.0 | 15.0 | 0.00 | 0.00 | 0.00 | 31 | 1011.6 |
| 20260830234016 | 97 | 270 | 6.0 | 13.0 | 0.00 | 0.00 | 0.00 | 31 | 1011.6 |
| 20260830233016 | 98 | 293 | 4.0 | 10.0 | 0.00 | 0.00 | 0.00 | 30 | 1011.8 |
| 20260830232016 | 99 | 270 | 5.0 | 10.0 | 0.00 | 0.00 | 0.00 | 29 | 1011.9 |
| 20260830231016 | 98 | 203 | 2.0 | 5.0 | 0.00 | 0.00 | 0.00 | 30 | 1012.0 |
| 20260830230016 | 99 | 270 | 6.0 | 12.0 | 0.00 | 0.00 | 0.00 | 29 | 1012.2 |
| 20260830225016 | 99 | 248 | 4.0 | 11.0 | 0.00 | 0.00 | 0.00 | 30 | 1012.4 |
| 20260830224016 | 98 | 248 | 2.0 | 12.0 | 0.00 | 0.00 | 0.00 | 31 | 1012.5 |
| 20260830223016 | 98 | 270 | 5.0 | 9.0 | 0.00 | 0.00 | 0.00 | 30 | 1012.8 |
| 20260830222016 | 98 | 225 | 3.0 | 8.0 | 0.00 | 0.00 | 0.00 | 30 | 1012.9 |
| 20260830221016 | 99 | 270 | 5.0 | 11.0 | 0.00 | 0.00 | 0.00 | 30 | 1013.0 |
| 20260830220016 | 99 | 270 | 7.0 | 15.0 | 0.00 | 0.00 | 0.00 | 30 | 1013.2 |
| 20260830215016 | 98 | 293 | 3.0 | 9.0 | 0.00 | 0.00 | 0.00 | 30 | 1013.4 |
| 20260830214016 | 98 | 270 | 6.0 | 15.0 | 0.00 | 0.00 | 0.00 | 30 | 1013.5 |
| 20260830213016 | 98 | 270 | 6.0 | 11.0 | 0.00 | 0.00 | 0.00 | 30 | 1013.6 |
| 20260830212016 | 98 | 270 | 4.0 | 12.0 | 0.00 | 0.00 | 0.00 | 30 | 1013.7 |
| 20260830211016 | 98 | 293 | 4.0 | 9.0 | 0.00 | 0.00 | 0.00 | 30 | 1013.9 |
| 20260830210016 | 98 | 225 | 3.0 | 9.0 | 0.00 | 0.00 | 0.00 | 30 | 1014.1 |
| 20260830205016 | 98 | 248 | 4.0 | 9.0 | 0.00 | 0.00 | 0.00 | 30 | 1014.4 |
| 20260830204016 | 98 | 248 | 4.0 | 11.0 | 0.00 | 0.00 | 0.00 | 31 | 1014.6 |
| 20260830203016 | 97 | 248 | 2.0 | 8.0 | 0.00 | 0.00 | 0.00 | 31 | 1014.8 |
| 20260830202016 | 96 | 293 | 2.0 | 8.0 | 0.00 | 0.00 | 0.00 | 32 | 1015.0 |
| 20260830201016 | 97 | 0 | 3.0 | 8.0 | 0.00 | 0.00 | 0.00 | 32 | 1015.0 |
| 20260830200016 | 98 | 270 | 5.0 | 12.0 | 0.00 | 0.00 | 0.00 | 31 | 1015.1 |
| 20260830195016 | 97 | 180 | 3.0 | 8.0 | 0.00 | 0.00 | 0.00 | 32 | 1015.1 |
| 20260830194016 | 97 | 203 | 2.0 | 7.0 | 0.00 | 0.00 | 0.00 | 33 | 1015.5 |
| 20260830193016 | 95 | 135 | 5.0 | 14.0 | 0.00 | 0.00 | 0.00 | 34 | 1015.7 |
| 20260830192016 | 96 | 203 | 2.0 | 8.0 | 0.00 | 0.00 | 0.00 | 34 | 1015.9 |
| 20260830191016 | 95 | 203 | 3.0 | 9.0 | 0.00 | 0.00 | 0.00 | 34 | 1016.1 |
| 20260830190016 | 95 | 180 | 4.0 | 11.0 | 0.00 | 0.00 | 0.00 | 34 | 1016.1 |
| 20260830185016 | 95 | 203 | 5.0 | 10.0 | 0.00 | 0.00 | 0.00 | 35 | 1016.2 |
| 20260830184016 | 94 | 248 | 4.0 | 9.0 | 0.00 | 0.00 | 0.00 | 34 | 1016.4 |
| 20260830183016 | 96 | 248 | 3.0 | 9.0 | 0.00 | 0.00 | 0.00 | 34 | 1016.5 |
| 20260830182016 | 95 | 248 | 2.0 | 6.0 | 0.00 | 0.00 | 0.00 | 34 | 1016.7 |
| 20260830181016 | 93 | 225 | 2.0 | 10.0 | 0.00 | 0.00 | 0.00 | 37 | 1016.8 |
| 20260830180016 | 93 | 248 | 1.0 | 5.0 | 0.00 | 0.00 | 0.00 | 36 | 1016.9 |
| 20260830175016 | 93 | 203 | 3.0 | 8.0 | 0.00 | 0.00 | 0.00 | 36 | 1016.9 |
| 20260830174016 | 93 | 225 | 2.0 | 6.0 | 0.00 | 0.00 | 0.00 | 37 | 1016.9 |
| 20260830173016 | 91 | 203 | 3.0 | 6.0 | 0.00 | 0.00 | 0.00 | 39 | 1017.1 |
| 20260830172016 | 91 | 135 | 2.0 | 7.0 | 0.00 | 0.00 | 0.00 | 41 | 1017.1 |
| 20260830171016 | 89 | 180 | 1.0 | 4.0 | 0.00 | 0.00 | 0.00 | 43 | 1017.1 |
| 20260830170016 | 90 | 180 | 1.0 | 4.0 | 0.00 | 0.00 | 0.00 | 42 | 1017.1 |
| 20260830165016 | 89 | 158 | 2.0 | 5.0 | 0.00 | 0.00 | 0.00 | 43 | 1017.2 |
| 20260830164016 | 89 | 158 | 2.0 | 5.0 | 0.00 | 0.00 | 0.00 | 43 | 1017.2 |
| 20260830163016 | 88 | 135 | 2.0 | 7.0 | 0.00 | 0.00 | 0.00 | 45 | 1017.2 |
| 20260830162016 | 88 | 203 | 3.0 | 7.0 | 0.00 | 0.00 | 0.00 | 44 | 1017.4 |
| 20260830161016 | 88 | 113 | 2.0 | 7.0 | 0.00 | 0.00 | 0.00 | 44 | 1017.3 |
| 20260830160016 | 88 | 158 | 2.0 | 5.0 | 0.00 | 0.00 | 0.00 | 44 | 1017.3 |
| 20260830155016 | 87 | 113 | 3.0 | 7.0 | 0.00 | 0.00 | 0.00 | 44 | 1017.3 |
| 20260830154016 | 87 | 135 | 1.0 | 5.0 | 0.00 | 0.00 | 0.00 | 45 | 1017.3 |
| 20260830153016 | 86 | 113 | 1.0 | 3.0 | 0.00 | 0.00 | 0.00 | 47 | 1017.3 |
| 20260830152016 | 85 | 135 | 1.0 | 3.0 | 0.00 | 0.00 | 0.00 | 48 | 1017.2 |
| 20260830151016 | 85 | 0.0 | 2.0 | 0.00 | 0.00 | 0.00 | 49 | 1017.2 | |
| 20260830150016 | 84 | 0.0 | 2.0 | 0.00 | 0.00 | 0.00 | 50 | 1017.2 | |
| 20260830145016 | 83 | 0.0 | 1.0 | 0.00 | 0.00 | 0.00 | 52 | 1017.2 | |
| 20260830144016 | 82 | 0.0 | 0.0 | 0.00 | 0.00 | 0.00 | 53 | 1017.3 | |
| 20260830143016 | 81 | 0.0 | 1.0 | 0.00 | 0.00 | 0.00 | 54 | 1017.3 | |
| 20260830142016 | 81 | 0.0 | 0.0 | 0.00 | 0.00 | 0.00 | 55 | 1017.4 | |
| 20260830141016 | 81 | 0.0 | 1.0 | 0.00 | 0.00 | 0.00 | 54 | 1017.4 | |
| 20260830140016 | 81 | 158 | 1.0 | 4.0 | 0.00 | 0.00 | 0.00 | 54 | 1017.5 |
| 20260830135016 | 81 | 0.0 | 0.0 | 0.00 | 0.00 | 0.00 | 54 | 1017.5 | |
| 20260830134016 | 81 | 0.0 | 1.0 | 0.00 | 0.00 | 0.00 | 53 | 1017.4 | |
| 20260830133016 | 81 | 0.0 | 1.0 | 0.00 | 0.00 | 0.00 | 52 | 1017.4 | |
| 20260830132016 | 81 | 0.0 | 1.0 | 0.00 | 0.00 | 0.00 | 52 | 1017.4 | |
| 20260830131016 | 81 | 0.0 | 2.0 | 0.00 | 0.00 | 0.00 | 52 | 1017.4 | |
| 20260830130016 | 82 | 68 | 2.0 | 6.0 | 0.00 | 0.00 | 0.00 | 52 | 1017.4 |
| 20260830125016 | 82 | 135 | 4.0 | 11.0 | 0.00 | 0.00 | 0.00 | 51 | 1017.4 |
| 20260830124016 | 82 | 135 | 6.0 | 11.0 | 0.00 | 0.00 | 0.00 | 50 | 1017.0 |
| 20260830123016 | 83 | 113 | 4.0 | 8.0 | 0.00 | 0.00 | 0.00 | 48 | 1016.8 |